sensor_id;sensor_type;location;lat;lon;timestamp;P1;durP1;ratioP1;P2;durP2;ratioP2
66212;SDS011;53015;50.046;8.238;2023-04-07T00:02:08;13.30;;;9.07;;
66212;SDS011;53015;50.046;8.238;2023-04-07T00:04:34;13.70;;;9.30;;
66212;SDS011;53015;50.046;8.238;2023-04-07T00:06:59;12.95;;;9.63;;
66212;SDS011;53015;50.046;8.238;2023-04-07T00:09:25;13.00;;;9.10;;
66212;SDS011;53015;50.046;8.238;2023-04-07T00:11:52;13.68;;;8.63;;
66212;SDS011;53015;50.046;8.238;2023-04-07T00:14:18;14.43;;;9.57;;
66212;SDS011;53015;50.046;8.238;2023-04-07T00:16:43;14.48;;;10.10;;
66212;SDS011;53015;50.046;8.238;2023-04-07T00:19:09;15.23;;;10.10;;
66212;SDS011;53015;50.046;8.238;2023-04-07T00:21:34;16.60;;;9.88;;
66212;SDS011;53015;50.046;8.238;2023-04-07T00:24:00;15.40;;;10.15;;
66212;SDS011;53015;50.046;8.238;2023-04-07T00:26:25;14.57;;;9.30;;
66212;SDS011;53015;50.046;8.238;2023-04-07T00:28:52;14.88;;;10.05;;
66212;SDS011;53015;50.046;8.238;2023-04-07T00:31:17;17.52;;;9.15;;
66212;SDS011;53015;50.046;8.238;2023-04-07T00:33:43;13.10;;;9.52;;
66212;SDS011;53015;50.046;8.238;2023-04-07T00:36:08;14.85;;;10.40;;
66212;SDS011;53015;50.046;8.238;2023-04-07T00:38:34;14.70;;;9.85;;
66212;SDS011;53015;50.046;8.238;2023-04-07T00:40:59;16.00;;;10.02;;
66212;SDS011;53015;50.046;8.238;2023-04-07T00:43:25;15.90;;;10.40;;
66212;SDS011;53015;50.046;8.238;2023-04-07T00:45:52;15.23;;;10.68;;
66212;SDS011;53015;50.046;8.238;2023-04-07T00:48:18;16.70;;;11.23;;
66212;SDS011;53015;50.046;8.238;2023-04-07T00:50:44;16.33;;;11.35;;
66212;SDS011;53015;50.046;8.238;2023-04-07T00:53:10;16.45;;;11.00;;
66212;SDS011;53015;50.046;8.238;2023-04-07T00:55:36;17.42;;;10.88;;
66212;SDS011;53015;50.046;8.238;2023-04-07T00:58:01;17.95;;;11.70;;
66212;SDS011;53015;50.046;8.238;2023-04-07T01:00:27;19.58;;;11.70;;
66212;SDS011;53015;50.046;8.238;2023-04-07T01:02:56;16.17;;;10.85;;
66212;SDS011;53015;50.046;8.238;2023-04-07T01:05:28;18.58;;;11.13;;
66212;SDS011;53015;50.046;8.238;2023-04-07T01:08:00;20.67;;;12.40;;
66212;SDS011;53015;50.046;8.238;2023-04-07T01:10:34;19.42;;;12.57;;
66212;SDS011;53015;50.046;8.238;2023-04-07T01:13:07;17.67;;;12.15;;
66212;SDS011;53015;50.046;8.238;2023-04-07T01:15:36;16.67;;;11.95;;
66212;SDS011;53015;50.046;8.238;2023-04-07T01:18:07;16.95;;;11.57;;
66212;SDS011;53015;50.046;8.238;2023-04-07T01:23:03;18.35;;;12.02;;
66212;SDS011;53015;50.046;8.238;2023-04-07T01:25:34;20.67;;;12.63;;
66212;SDS011;53015;50.046;8.238;2023-04-07T01:28:18;18.25;;;11.63;;
66212;SDS011;53015;50.046;8.238;2023-04-07T01:30:59;17.25;;;12.18;;
66212;SDS011;53015;50.046;8.238;2023-04-07T01:33:26;16.10;;;11.80;;
66212;SDS011;53015;50.046;8.238;2023-04-07T01:35:55;16.27;;;11.30;;
66212;SDS011;53015;50.046;8.238;2023-04-07T01:38:23;18.90;;;12.25;;
66212;SDS011;53015;50.046;8.238;2023-04-07T01:40:50;16.58;;;11.57;;
66212;SDS011;53015;50.046;8.238;2023-04-07T01:43:17;17.95;;;11.63;;
66212;SDS011;53015;50.046;8.238;2023-04-07T01:45:43;18.45;;;11.88;;
66212;SDS011;53015;50.046;8.238;2023-04-07T01:48:10;16.92;;;11.00;;
66212;SDS011;53015;50.046;8.238;2023-04-07T01:50:37;19.05;;;11.80;;
66212;SDS011;53015;50.046;8.238;2023-04-07T01:53:03;16.95;;;11.38;;
66212;SDS011;53015;50.046;8.238;2023-04-07T01:55:29;16.25;;;11.48;;
66212;SDS011;53015;50.046;8.238;2023-04-07T01:57:55;16.17;;;11.23;;
66212;SDS011;53015;50.046;8.238;2023-04-07T02:00:21;19.02;;;11.55;;
66212;SDS011;53015;50.046;8.238;2023-04-07T02:02:47;16.42;;;11.07;;
66212;SDS011;53015;50.046;8.238;2023-04-07T02:05:18;16.85;;;11.80;;
66212;SDS011;53015;50.046;8.238;2023-04-07T02:07:47;17.77;;;10.75;;
66212;SDS011;53015;50.046;8.238;2023-04-07T02:10:16;16.20;;;11.27;;
66212;SDS011;53015;50.046;8.238;2023-04-07T02:12:45;16.42;;;10.77;;
66212;SDS011;53015;50.046;8.238;2023-04-07T02:15:11;14.38;;;10.52;;
66212;SDS011;53015;50.046;8.238;2023-04-07T02:17:38;17.33;;;11.43;;
66212;SDS011;53015;50.046;8.238;2023-04-07T02:20:05;15.48;;;10.40;;
66212;SDS011;53015;50.046;8.238;2023-04-07T02:22:36;16.35;;;11.30;;
66212;SDS011;53015;50.046;8.238;2023-04-07T02:25:02;18.98;;;10.65;;
66212;SDS011;53015;50.046;8.238;2023-04-07T02:27:41;15.35;;;10.70;;
66212;SDS011;53015;50.046;8.238;2023-04-07T02:30:07;15.38;;;10.68;;
66212;SDS011;53015;50.046;8.238;2023-04-07T02:32:33;20.25;;;12.05;;
66212;SDS011;53015;50.046;8.238;2023-04-07T02:34:58;17.05;;;11.40;;
66212;SDS011;53015;50.046;8.238;2023-04-07T02:37:24;16.77;;;11.15;;
66212;SDS011;53015;50.046;8.238;2023-04-07T02:39:50;18.52;;;11.73;;
66212;SDS011;53015;50.046;8.238;2023-04-07T02:42:16;18.70;;;12.35;;
66212;SDS011;53015;50.046;8.238;2023-04-07T02:44:41;17.90;;;11.32;;
66212;SDS011;53015;50.046;8.238;2023-04-07T02:47:07;18.70;;;11.95;;
66212;SDS011;53015;50.046;8.238;2023-04-07T02:49:32;16.67;;;11.32;;
66212;SDS011;53015;50.046;8.238;2023-04-07T02:51:58;17.17;;;11.65;;
66212;SDS011;53015;50.046;8.238;2023-04-07T02:54:23;20.73;;;12.38;;
66212;SDS011;53015;50.046;8.238;2023-04-07T02:56:50;19.48;;;11.95;;
66212;SDS011;53015;50.046;8.238;2023-04-07T02:59:15;16.33;;;11.30;;
66212;SDS011;53015;50.046;8.238;2023-04-07T03:01:41;18.65;;;11.75;;
66212;SDS011;53015;50.046;8.238;2023-04-07T03:04:06;17.20;;;11.75;;
66212;SDS011;53015;50.046;8.238;2023-04-07T03:06:32;16.83;;;11.90;;
66212;SDS011;53015;50.046;8.238;2023-04-07T03:08:57;18.98;;;12.18;;
66212;SDS011;53015;50.046;8.238;2023-04-07T03:11:23;18.17;;;11.95;;
66212;SDS011;53015;50.046;8.238;2023-04-07T03:13:49;18.45;;;12.73;;
66212;SDS011;53015;50.046;8.238;2023-04-07T03:16:15;19.40;;;12.15;;
66212;SDS011;53015;50.046;8.238;2023-04-07T03:18:40;20.23;;;12.15;;
66212;SDS011;53015;50.046;8.238;2023-04-07T03:21:06;20.13;;;12.85;;
66212;SDS011;53015;50.046;8.238;2023-04-07T03:23:31;18.38;;;12.40;;
66212;SDS011;53015;50.046;8.238;2023-04-07T03:25:57;18.88;;;12.90;;
66212;SDS011;53015;50.046;8.238;2023-04-07T03:28:22;17.55;;;12.98;;
66212;SDS011;53015;50.046;8.238;2023-04-07T03:30:49;20.05;;;12.70;;
66212;SDS011;53015;50.046;8.238;2023-04-07T03:33:15;20.73;;;13.55;;
66212;SDS011;53015;50.046;8.238;2023-04-07T03:35:41;18.73;;;12.23;;
66212;SDS011;53015;50.046;8.238;2023-04-07T03:38:06;19.15;;;13.15;;
66212;SDS011;53015;50.046;8.238;2023-04-07T03:40:32;20.08;;;12.48;;
66212;SDS011;53015;50.046;8.238;2023-04-07T03:42:57;20.83;;;13.02;;
66212;SDS011;53015;50.046;8.238;2023-04-07T03:45:23;20.52;;;13.07;;
66212;SDS011;53015;50.046;8.238;2023-04-07T03:47:49;21.15;;;14.15;;
66212;SDS011;53015;50.046;8.238;2023-04-07T03:50:15;23.75;;;14.40;;
66212;SDS011;53015;50.046;8.238;2023-04-07T03:52:40;19.27;;;13.13;;
66212;SDS011;53015;50.046;8.238;2023-04-07T03:55:06;20.60;;;13.45;;
66212;SDS011;53015;50.046;8.238;2023-04-07T03:57:32;20.83;;;13.63;;
66212;SDS011;53015;50.046;8.238;2023-04-07T03:59:58;20.30;;;12.90;;
66212;SDS011;53015;50.046;8.238;2023-04-07T04:02:23;20.25;;;13.85;;
66212;SDS011;53015;50.046;8.238;2023-04-07T04:04:50;21.63;;;13.68;;
66212;SDS011;53015;50.046;8.238;2023-04-07T04:07:15;20.27;;;13.95;;
66212;SDS011;53015;50.046;8.238;2023-04-07T04:09:41;18.52;;;13.48;;
66212;SDS011;53015;50.046;8.238;2023-04-07T04:12:06;23.73;;;14.13;;
66212;SDS011;53015;50.046;8.238;2023-04-07T04:14:32;21.63;;;14.25;;
66212;SDS011;53015;50.046;8.238;2023-04-07T04:16:57;23.10;;;14.13;;
66212;SDS011;53015;50.046;8.238;2023-04-07T04:19:23;21.15;;;14.07;;
66212;SDS011;53015;50.046;8.238;2023-04-07T04:21:49;19.77;;;13.45;;
66212;SDS011;53015;50.046;8.238;2023-04-07T04:24:15;22.80;;;14.13;;
66212;SDS011;53015;50.046;8.238;2023-04-07T04:26:40;20.40;;;13.35;;
66212;SDS011;53015;50.046;8.238;2023-04-07T04:29:06;19.75;;;13.70;;
66212;SDS011;53015;50.046;8.238;2023-04-07T04:31:31;19.95;;;14.20;;
66212;SDS011;53015;50.046;8.238;2023-04-07T04:33:57;20.55;;;13.10;;
66212;SDS011;53015;50.046;8.238;2023-04-07T04:36:22;20.23;;;14.02;;
66212;SDS011;53015;50.046;8.238;2023-04-07T04:38:49;23.85;;;14.13;;
66212;SDS011;53015;50.046;8.238;2023-04-07T04:41:15;23.10;;;14.05;;
66212;SDS011;53015;50.046;8.238;2023-04-07T04:43:40;21.48;;;14.15;;
66212;SDS011;53015;50.046;8.238;2023-04-07T04:46:05;22.70;;;14.63;;
66212;SDS011;53015;50.046;8.238;2023-04-07T04:48:31;21.67;;;14.00;;
66212;SDS011;53015;50.046;8.238;2023-04-07T04:50:56;23.88;;;14.52;;
66212;SDS011;53015;50.046;8.238;2023-04-07T04:53:22;21.38;;;13.55;;
66212;SDS011;53015;50.046;8.238;2023-04-07T04:55:49;20.08;;;13.27;;
66212;SDS011;53015;50.046;8.238;2023-04-07T04:58:14;19.65;;;13.57;;
66212;SDS011;53015;50.046;8.238;2023-04-07T05:00:40;17.58;;;13.20;;
66212;SDS011;53015;50.046;8.238;2023-04-07T05:03:05;25.58;;;14.57;;
66212;SDS011;53015;50.046;8.238;2023-04-07T05:05:31;22.45;;;14.20;;
66212;SDS011;53015;50.046;8.238;2023-04-07T05:07:56;23.45;;;14.57;;
66212;SDS011;53015;50.046;8.238;2023-04-07T05:10:21;23.17;;;13.60;;
66212;SDS011;53015;50.046;8.238;2023-04-07T05:12:48;23.88;;;14.52;;
66212;SDS011;53015;50.046;8.238;2023-04-07T05:15:14;20.60;;;14.15;;
66212;SDS011;53015;50.046;8.238;2023-04-07T05:17:40;22.25;;;13.85;;
66212;SDS011;53015;50.046;8.238;2023-04-07T05:20:07;24.38;;;14.98;;
66212;SDS011;53015;50.046;8.238;2023-04-07T05:22:34;24.65;;;14.73;;
66212;SDS011;53015;50.046;8.238;2023-04-07T05:24:59;26.23;;;16.40;;
66212;SDS011;53015;50.046;8.238;2023-04-07T05:27:24;24.02;;;15.30;;
66212;SDS011;53015;50.046;8.238;2023-04-07T05:29:51;24.30;;;16.15;;
66212;SDS011;53015;50.046;8.238;2023-04-07T05:32:17;23.70;;;15.60;;
66212;SDS011;53015;50.046;8.238;2023-04-07T05:34:43;27.02;;;16.63;;
66212;SDS011;53015;50.046;8.238;2023-04-07T05:37:08;26.77;;;17.48;;
66212;SDS011;53015;50.046;8.238;2023-04-07T05:39:34;24.17;;;16.35;;
66212;SDS011;53015;50.046;8.238;2023-04-07T05:42:00;24.80;;;16.17;;
66212;SDS011;53015;50.046;8.238;2023-04-07T05:44:25;23.50;;;15.80;;
66212;SDS011;53015;50.046;8.238;2023-04-07T05:46:52;23.80;;;15.65;;
66212;SDS011;53015;50.046;8.238;2023-04-07T05:49:17;22.75;;;15.00;;
66212;SDS011;53015;50.046;8.238;2023-04-07T05:51:43;24.17;;;15.82;;
66212;SDS011;53015;50.046;8.238;2023-04-07T05:54:09;26.23;;;15.88;;
66212;SDS011;53015;50.046;8.238;2023-04-07T05:56:34;22.27;;;14.70;;
66212;SDS011;53015;50.046;8.238;2023-04-07T05:59:00;24.48;;;15.50;;
66212;SDS011;53015;50.046;8.238;2023-04-07T06:01:25;22.35;;;14.95;;
66212;SDS011;53015;50.046;8.238;2023-04-07T06:03:52;23.25;;;15.27;;
66212;SDS011;53015;50.046;8.238;2023-04-07T06:06:17;23.55;;;14.95;;
66212;SDS011;53015;50.046;8.238;2023-04-07T06:08:43;21.95;;;15.15;;
66212;SDS011;53015;50.046;8.238;2023-04-07T06:11:08;21.08;;;14.48;;
66212;SDS011;53015;50.046;8.238;2023-04-07T06:13:34;21.63;;;14.65;;
66212;SDS011;53015;50.046;8.238;2023-04-07T06:15:59;24.02;;;15.50;;
66212;SDS011;53015;50.046;8.238;2023-04-07T06:18:25;24.58;;;15.25;;
66212;SDS011;53015;50.046;8.238;2023-04-07T06:20:51;25.55;;;16.10;;
66212;SDS011;53015;50.046;8.238;2023-04-07T06:23:17;22.38;;;14.98;;
66212;SDS011;53015;50.046;8.238;2023-04-07T06:25:42;22.77;;;15.65;;
66212;SDS011;53015;50.046;8.238;2023-04-07T06:28:08;25.20;;;16.63;;
66212;SDS011;53015;50.046;8.238;2023-04-07T06:30:33;30.45;;;17.45;;
66212;SDS011;53015;50.046;8.238;2023-04-07T06:32:59;23.30;;;15.52;;
66212;SDS011;53015;50.046;8.238;2023-04-07T06:35:24;26.27;;;17.13;;
66212;SDS011;53015;50.046;8.238;2023-04-07T06:37:51;25.23;;;15.98;;
66212;SDS011;53015;50.046;8.238;2023-04-07T06:40:17;25.52;;;15.23;;
66212;SDS011;53015;50.046;8.238;2023-04-07T06:42:42;23.40;;;15.30;;
66212;SDS011;53015;50.046;8.238;2023-04-07T06:45:08;24.30;;;15.02;;
66212;SDS011;53015;50.046;8.238;2023-04-07T06:47:34;26.90;;;15.57;;
66212;SDS011;53015;50.046;8.238;2023-04-07T06:49:59;23.67;;;15.57;;
66212;SDS011;53015;50.046;8.238;2023-04-07T06:52:25;24.92;;;15.98;;
66212;SDS011;53015;50.046;8.238;2023-04-07T06:54:52;24.88;;;16.27;;
66212;SDS011;53015;50.046;8.238;2023-04-07T06:57:17;28.65;;;15.85;;
66212;SDS011;53015;50.046;8.238;2023-04-07T06:59:43;24.77;;;16.65;;
66212;SDS011;53015;50.046;8.238;2023-04-07T07:02:08;24.00;;;15.38;;
66212;SDS011;53015;50.046;8.238;2023-04-07T07:04:34;23.95;;;15.30;;
66212;SDS011;53015;50.046;8.238;2023-04-07T07:06:59;23.73;;;15.32;;
66212;SDS011;53015;50.046;8.238;2023-04-07T07:09:25;23.60;;;15.38;;
66212;SDS011;53015;50.046;8.238;2023-04-07T07:11:52;23.00;;;15.02;;
66212;SDS011;53015;50.046;8.238;2023-04-07T07:14:17;22.95;;;14.63;;
66212;SDS011;53015;50.046;8.238;2023-04-07T07:16:43;25.67;;;15.95;;
66212;SDS011;53015;50.046;8.238;2023-04-07T07:19:08;28.23;;;16.05;;
66212;SDS011;53015;50.046;8.238;2023-04-07T07:21:34;27.83;;;15.57;;
66212;SDS011;53015;50.046;8.238;2023-04-07T07:23:59;24.08;;;14.88;;
66212;SDS011;53015;50.046;8.238;2023-04-07T07:26:25;24.05;;;15.07;;
66212;SDS011;53015;50.046;8.238;2023-04-07T07:28:52;19.55;;;13.48;;
66212;SDS011;53015;50.046;8.238;2023-04-07T07:31:17;23.00;;;12.88;;
66212;SDS011;53015;50.046;8.238;2023-04-07T07:33:43;18.10;;;12.15;;
66212;SDS011;53015;50.046;8.238;2023-04-07T07:36:08;20.35;;;12.82;;
66212;SDS011;53015;50.046;8.238;2023-04-07T07:38:34;21.15;;;13.52;;
66212;SDS011;53015;50.046;8.238;2023-04-07T07:41:00;19.85;;;13.35;;
66212;SDS011;53015;50.046;8.238;2023-04-07T07:43:25;21.08;;;13.48;;
66212;SDS011;53015;50.046;8.238;2023-04-07T07:45:52;18.77;;;13.48;;
66212;SDS011;53015;50.046;8.238;2023-04-07T07:48:17;18.42;;;13.10;;
66212;SDS011;53015;50.046;8.238;2023-04-07T07:50:43;20.27;;;13.20;;
66212;SDS011;53015;50.046;8.238;2023-04-07T07:53:08;19.88;;;12.60;;
66212;SDS011;53015;50.046;8.238;2023-04-07T07:55:34;18.35;;;12.63;;
66212;SDS011;53015;50.046;8.238;2023-04-07T07:58:00;18.48;;;12.68;;
66212;SDS011;53015;50.046;8.238;2023-04-07T08:00:25;17.92;;;12.93;;
66212;SDS011;53015;50.046;8.238;2023-04-07T08:02:52;19.52;;;12.95;;
66212;SDS011;53015;50.046;8.238;2023-04-07T08:05:18;19.30;;;12.90;;
66212;SDS011;53015;50.046;8.238;2023-04-07T08:07:44;17.45;;;12.32;;
66212;SDS011;53015;50.046;8.238;2023-04-07T08:10:09;20.27;;;12.05;;
66212;SDS011;53015;50.046;8.238;2023-04-07T08:12:35;16.23;;;12.18;;
66212;SDS011;53015;50.046;8.238;2023-04-07T08:15:00;18.60;;;12.70;;
66212;SDS011;53015;50.046;8.238;2023-04-07T08:17:26;17.85;;;12.13;;
66212;SDS011;53015;50.046;8.238;2023-04-07T08:19:53;18.15;;;11.88;;
66212;SDS011;53015;50.046;8.238;2023-04-07T08:22:19;15.27;;;10.50;;
66212;SDS011;53015;50.046;8.238;2023-04-07T08:24:44;16.75;;;11.95;;
66212;SDS011;53015;50.046;8.238;2023-04-07T08:27:09;15.18;;;10.55;;
66212;SDS011;53015;50.046;8.238;2023-04-07T08:29:35;15.43;;;10.30;;
66212;SDS011;53015;50.046;8.238;2023-04-07T08:32:00;15.55;;;10.30;;
66212;SDS011;53015;50.046;8.238;2023-04-07T08:34:26;15.50;;;10.02;;
66212;SDS011;53015;50.046;8.238;2023-04-07T08:36:53;13.02;;;9.35;;
66212;SDS011;53015;50.046;8.238;2023-04-07T08:39:18;13.43;;;10.15;;
66212;SDS011;53015;50.046;8.238;2023-04-07T08:41:44;16.20;;;10.00;;
66212;SDS011;53015;50.046;8.238;2023-04-07T08:44:11;17.48;;;10.23;;
66212;SDS011;53015;50.046;8.238;2023-04-07T08:46:39;14.90;;;10.55;;
66212;SDS011;53015;50.046;8.238;2023-04-07T08:49:07;14.95;;;11.35;;
66212;SDS011;53015;50.046;8.238;2023-04-07T08:51:33;14.73;;;10.65;;
66212;SDS011;53015;50.046;8.238;2023-04-07T08:54:04;15.98;;;10.88;;
66212;SDS011;53015;50.046;8.238;2023-04-07T08:56:33;15.33;;;11.53;;
66212;SDS011;53015;50.046;8.238;2023-04-07T08:59:00;15.35;;;10.82;;
66212;SDS011;53015;50.046;8.238;2023-04-07T09:01:26;14.50;;;11.02;;
66212;SDS011;53015;50.046;8.238;2023-04-07T09:03:53;16.05;;;11.55;;
66212;SDS011;53015;50.046;8.238;2023-04-07T09:06:20;14.18;;;10.48;;
66212;SDS011;53015;50.046;8.238;2023-04-07T09:08:46;15.20;;;10.45;;
66212;SDS011;53015;50.046;8.238;2023-04-07T09:11:13;15.88;;;10.60;;
66212;SDS011;53015;50.046;8.238;2023-04-07T09:13:38;13.32;;;10.20;;
66212;SDS011;53015;50.046;8.238;2023-04-07T09:16:04;14.63;;;10.18;;
66212;SDS011;53015;50.046;8.238;2023-04-07T09:18:30;15.63;;;11.32;;
66212;SDS011;53015;50.046;8.238;2023-04-07T09:20:55;16.05;;;11.02;;
66212;SDS011;53015;50.046;8.238;2023-04-07T09:23:26;14.90;;;11.20;;
66212;SDS011;53015;50.046;8.238;2023-04-07T09:25:52;14.70;;;11.15;;
66212;SDS011;53015;50.046;8.238;2023-04-07T09:28:19;13.48;;;9.57;;
66212;SDS011;53015;50.046;8.238;2023-04-07T09:30:51;14.32;;;9.70;;
66212;SDS011;53015;50.046;8.238;2023-04-07T09:33:17;15.70;;;10.63;;
66212;SDS011;53015;50.046;8.238;2023-04-07T09:35:51;14.98;;;10.02;;
66212;SDS011;53015;50.046;8.238;2023-04-07T09:38:17;14.50;;;9.93;;
66212;SDS011;53015;50.046;8.238;2023-04-07T09:40:42;14.27;;;10.40;;
66212;SDS011;53015;50.046;8.238;2023-04-07T09:43:13;15.55;;;10.20;;
66212;SDS011;53015;50.046;8.238;2023-04-07T09:45:41;16.55;;;10.30;;
66212;SDS011;53015;50.046;8.238;2023-04-07T09:48:06;10.40;;;8.02;;
66212;SDS011;53015;50.046;8.238;2023-04-07T09:50:33;10.73;;;8.23;;
66212;SDS011;53015;50.046;8.238;2023-04-07T09:52:59;12.80;;;9.50;;
66212;SDS011;53015;50.046;8.238;2023-04-07T09:55:25;14.27;;;10.30;;
66212;SDS011;53015;50.046;8.238;2023-04-07T09:57:52;14.70;;;10.43;;
66212;SDS011;53015;50.046;8.238;2023-04-07T10:00:18;12.70;;;10.07;;
66212;SDS011;53015;50.046;8.238;2023-04-07T10:02:45;13.02;;;9.50;;
66212;SDS011;53015;50.046;8.238;2023-04-07T10:05:10;13.48;;;10.00;;
66212;SDS011;53015;50.046;8.238;2023-04-07T10:07:36;15.13;;;10.10;;
66212;SDS011;53015;50.046;8.238;2023-04-07T10:10:01;12.85;;;10.27;;
66212;SDS011;53015;50.046;8.238;2023-04-07T10:12:27;13.15;;;9.75;;
66212;SDS011;53015;50.046;8.238;2023-04-07T10:14:54;13.32;;;10.18;;
66212;SDS011;53015;50.046;8.238;2023-04-07T10:17:22;13.27;;;10.00;;
66212;SDS011;53015;50.046;8.238;2023-04-07T10:19:50;12.95;;;10.45;;
66212;SDS011;53015;50.046;8.238;2023-04-07T10:22:15;13.40;;;10.45;;
66212;SDS011;53015;50.046;8.238;2023-04-07T10:24:44;15.10;;;10.77;;
66212;SDS011;53015;50.046;8.238;2023-04-07T10:27:16;12.80;;;9.82;;
66212;SDS011;53015;50.046;8.238;2023-04-07T10:29:47;13.55;;;9.20;;
66212;SDS011;53015;50.046;8.238;2023-04-07T10:32:14;13.48;;;9.95;;
66212;SDS011;53015;50.046;8.238;2023-04-07T10:34:56;13.85;;;10.43;;
66212;SDS011;53015;50.046;8.238;2023-04-07T10:39:50;10.15;;;7.78;;
66212;SDS011;53015;50.046;8.238;2023-04-07T10:42:46;10.85;;;8.13;;
66212;SDS011;53015;50.046;8.238;2023-04-07T10:45:12;14.38;;;8.68;;
66212;SDS011;53015;50.046;8.238;2023-04-07T10:47:43;11.98;;;8.60;;
66212;SDS011;53015;50.046;8.238;2023-04-07T10:50:35;14.75;;;9.02;;
66212;SDS011;53015;50.046;8.238;2023-04-07T10:53:04;11.00;;;8.95;;
66212;SDS011;53015;50.046;8.238;2023-04-07T10:55:31;11.55;;;9.48;;
66212;SDS011;53015;50.046;8.238;2023-04-07T10:58:18;11.35;;;8.65;;
66212;SDS011;53015;50.046;8.238;2023-04-07T11:03:43;10.32;;;8.07;;
66212;SDS011;53015;50.046;8.238;2023-04-07T11:06:17;9.48;;;7.68;;
66212;SDS011;53015;50.046;8.238;2023-04-07T11:08:43;11.40;;;8.30;;
66212;SDS011;53015;50.046;8.238;2023-04-07T11:11:11;9.20;;;7.40;;
66212;SDS011;53015;50.046;8.238;2023-04-07T11:13:42;9.27;;;7.40;;
66212;SDS011;53015;50.046;8.238;2023-04-07T11:16:08;9.00;;;7.10;;
66212;SDS011;53015;50.046;8.238;2023-04-07T11:18:35;9.55;;;6.82;;
66212;SDS011;53015;50.046;8.238;2023-04-07T11:21:01;8.00;;;6.47;;
66212;SDS011;53015;50.046;8.238;2023-04-07T11:23:27;10.10;;;6.47;;
66212;SDS011;53015;50.046;8.238;2023-04-07T11:25:53;10.38;;;7.13;;
66212;SDS011;53015;50.046;8.238;2023-04-07T11:28:24;9.18;;;6.05;;
66212;SDS011;53015;50.046;8.238;2023-04-07T11:30:51;7.20;;;5.90;;
66212;SDS011;53015;50.046;8.238;2023-04-07T11:33:18;7.82;;;6.35;;
66212;SDS011;53015;50.046;8.238;2023-04-07T11:35:49;6.50;;;5.25;;
66212;SDS011;53015;50.046;8.238;2023-04-07T11:38:15;6.93;;;5.38;;
66212;SDS011;53015;50.046;8.238;2023-04-07T11:40:42;10.40;;;5.80;;
66212;SDS011;53015;50.046;8.238;2023-04-07T11:43:14;5.70;;;5.00;;
66212;SDS011;53015;50.046;8.238;2023-04-07T11:45:40;7.18;;;5.40;;
66212;SDS011;53015;50.046;8.238;2023-04-07T11:50:55;5.13;;;4.55;;
66212;SDS011;53015;50.046;8.238;2023-04-07T11:53:24;8.32;;;5.15;;
66212;SDS011;53015;50.046;8.238;2023-04-07T11:55:57;5.35;;;4.55;;
66212;SDS011;53015;50.046;8.238;2023-04-07T11:58:23;6.00;;;4.72;;
66212;SDS011;53015;50.046;8.238;2023-04-07T12:00:52;5.00;;;4.15;;
66212;SDS011;53015;50.046;8.238;2023-04-07T12:03:18;4.93;;;4.20;;
66212;SDS011;53015;50.046;8.238;2023-04-07T12:05:45;4.32;;;3.75;;
66212;SDS011;53015;50.046;8.238;2023-04-07T12:08:11;3.80;;;3.40;;
66212;SDS011;53015;50.046;8.238;2023-04-07T12:10:37;6.18;;;3.03;;
66212;SDS011;53015;50.046;8.238;2023-04-07T12:13:03;3.78;;;3.08;;
66212;SDS011;53015;50.046;8.238;2023-04-07T12:15:28;40.25;;;27.02;;
66212;SDS011;53015;50.046;8.238;2023-04-07T12:17:53;26.10;;;17.58;;
66212;SDS011;53015;50.046;8.238;2023-04-07T12:20:19;11.77;;;8.45;;
66212;SDS011;53015;50.046;8.238;2023-04-07T12:22:46;2.55;;;2.35;;
66212;SDS011;53015;50.046;8.238;2023-04-07T12:25:11;2.22;;;1.90;;
66212;SDS011;53015;50.046;8.238;2023-04-07T12:27:37;3.20;;;2.10;;
66212;SDS011;53015;50.046;8.238;2023-04-07T12:30:02;3.03;;;2.70;;
66212;SDS011;53015;50.046;8.238;2023-04-07T12:32:28;3.60;;;2.80;;
66212;SDS011;53015;50.046;8.238;2023-04-07T12:34:54;2.88;;;2.58;;
66212;SDS011;53015;50.046;8.238;2023-04-07T12:37:19;2.50;;;2.30;;
66212;SDS011;53015;50.046;8.238;2023-04-07T12:39:46;4.22;;;2.50;;
66212;SDS011;53015;50.046;8.238;2023-04-07T12:42:11;3.72;;;2.95;;
66212;SDS011;53015;50.046;8.238;2023-04-07T12:44:37;2.47;;;2.10;;
66212;SDS011;53015;50.046;8.238;2023-04-07T12:47:02;1.88;;;1.75;;
66212;SDS011;53015;50.046;8.238;2023-04-07T12:49:28;1.83;;;1.27;;
66212;SDS011;53015;50.046;8.238;2023-04-07T12:51:53;1.20;;;1.10;;
66212;SDS011;53015;50.046;8.238;2023-04-07T12:54:19;1.10;;;1.00;;
66212;SDS011;53015;50.046;8.238;2023-04-07T12:56:46;2.08;;;1.20;;
66212;SDS011;53015;50.046;8.238;2023-04-07T12:59:11;1.10;;;1.00;;
66212;SDS011;53015;50.046;8.238;2023-04-07T13:01:37;1.23;;;0.98;;
66212;SDS011;53015;50.046;8.238;2023-04-07T13:04:03;1.60;;;1.17;;
66212;SDS011;53015;50.046;8.238;2023-04-07T13:06:28;1.10;;;1.05;;
66212;SDS011;53015;50.046;8.238;2023-04-07T13:08:54;0.85;;;0.85;;
66212;SDS011;53015;50.046;8.238;2023-04-07T13:11:19;1.20;;;1.10;;
66212;SDS011;53015;50.046;8.238;2023-04-07T13:13:46;2.03;;;1.20;;
66212;SDS011;53015;50.046;8.238;2023-04-07T13:16:12;2.03;;;1.65;;
66212;SDS011;53015;50.046;8.238;2023-04-07T13:18:37;2.22;;;1.45;;
66212;SDS011;53015;50.046;8.238;2023-04-07T13:21:03;1.52;;;1.42;;
66212;SDS011;53015;50.046;8.238;2023-04-07T13:23:29;1.42;;;1.25;;
66212;SDS011;53015;50.046;8.238;2023-04-07T13:25:55;2.65;;;1.70;;
66212;SDS011;53015;50.046;8.238;2023-04-07T13:28:20;2.42;;;1.70;;
66212;SDS011;53015;50.046;8.238;2023-04-07T13:30:47;4.80;;;1.88;;
66212;SDS011;53015;50.046;8.238;2023-04-07T13:33:12;1.73;;;1.63;;
66212;SDS011;53015;50.046;8.238;2023-04-07T13:35:38;2.22;;;1.52;;
66212;SDS011;53015;50.046;8.238;2023-04-07T13:38:03;2.20;;;2.00;;
66212;SDS011;53015;50.046;8.238;2023-04-07T13:40:29;1.67;;;1.58;;
66212;SDS011;53015;50.046;8.238;2023-04-07T13:42:54;2.33;;;1.90;;
66212;SDS011;53015;50.046;8.238;2023-04-07T13:45:20;1.63;;;1.30;;
66212;SDS011;53015;50.046;8.238;2023-04-07T13:47:47;2.08;;;1.70;;
66212;SDS011;53015;50.046;8.238;2023-04-07T13:50:12;1.90;;;1.52;;
66212;SDS011;53015;50.046;8.238;2023-04-07T13:52:38;1.50;;;1.40;;
66212;SDS011;53015;50.046;8.238;2023-04-07T13:55:04;1.90;;;1.40;;
66212;SDS011;53015;50.046;8.238;2023-04-07T13:57:30;2.45;;;1.20;;
66212;SDS011;53015;50.046;8.238;2023-04-07T13:59:55;2.97;;;1.13;;
66212;SDS011;53015;50.046;8.238;2023-04-07T14:02:21;1.75;;;1.25;;
66212;SDS011;53015;50.046;8.238;2023-04-07T14:04:48;1.17;;;1.10;;
66212;SDS011;53015;50.046;8.238;2023-04-07T14:07:13;0.80;;;0.80;;
66212;SDS011;53015;50.046;8.238;2023-04-07T14:09:39;0.90;;;0.90;;
66212;SDS011;53015;50.046;8.238;2023-04-07T14:12:04;0.80;;;0.80;;
66212;SDS011;53015;50.046;8.238;2023-04-07T14:14:30;1.00;;;0.90;;
66212;SDS011;53015;50.046;8.238;2023-04-07T14:16:55;0.95;;;0.70;;
66212;SDS011;53015;50.046;8.238;2023-04-07T14:19:21;0.60;;;0.60;;
66212;SDS011;53015;50.046;8.238;2023-04-07T14:21:48;0.93;;;0.77;;
66212;SDS011;53015;50.046;8.238;2023-04-07T14:24:13;1.25;;;0.90;;
66212;SDS011;53015;50.046;8.238;2023-04-07T14:26:39;1.48;;;1.20;;
66212;SDS011;53015;50.046;8.238;2023-04-07T14:29:04;2.28;;;1.20;;
66212;SDS011;53015;50.046;8.238;2023-04-07T14:31:30;2.13;;;1.42;;
66212;SDS011;53015;50.046;8.238;2023-04-07T14:33:55;1.45;;;1.27;;
66212;SDS011;53015;50.046;8.238;2023-04-07T14:36:21;2.35;;;1.17;;